sensor_id;sensor_type;location;lat;lon;timestamp;temperature;humidity
55836;DHT22;66908;50.988;4.780;2023-02-18T00:01:22;11.80;93.00
55836;DHT22;66908;50.988;4.780;2023-02-18T00:03:49;12.00;92.70
55836;DHT22;66908;50.988;4.780;2023-02-18T00:06:21;12.10;92.30
55836;DHT22;66908;50.988;4.780;2023-02-18T00:08:48;11.90;92.60
55836;DHT22;66908;50.988;4.780;2023-02-18T00:11:15;11.90;92.70
55836;DHT22;66908;50.988;4.780;2023-02-18T00:13:41;11.90;92.80
55836;DHT22;66908;50.988;4.780;2023-02-18T00:16:11;12.00;92.40
55836;DHT22;66908;50.988;4.780;2023-02-18T00:18:37;12.10;92.30
55836;DHT22;66908;50.988;4.780;2023-02-18T00:21:05;12.00;92.30
55836;DHT22;66908;50.988;4.780;2023-02-18T00:23:32;12.00;92.40
55836;DHT22;66908;50.988;4.780;2023-02-18T00:26:10;12.00;92.40
55836;DHT22;66908;50.988;4.780;2023-02-18T00:28:37;12.00;92.50
55836;DHT22;66908;50.988;4.780;2023-02-18T00:31:10;12.00;92.30
55836;DHT22;66908;50.988;4.780;2023-02-18T00:33:36;12.00;92.50
55836;DHT22;66908;50.988;4.780;2023-02-18T00:36:05;12.00;92.20
55836;DHT22;66908;50.988;4.780;2023-02-18T00:38:32;12.10;92.00
55836;DHT22;66908;50.988;4.780;2023-02-18T00:40:58;12.10;91.90
55836;DHT22;66908;50.988;4.780;2023-02-18T00:43:25;12.10;91.80
55836;DHT22;66908;50.988;4.780;2023-02-18T00:45:51;11.90;92.40
55836;DHT22;66908;50.988;4.780;2023-02-18T00:48:17;11.90;92.20
55836;DHT22;66908;50.988;4.780;2023-02-18T00:50:44;11.90;92.40
55836;DHT22;66908;50.988;4.780;2023-02-18T00:53:10;12.10;92.10
55836;DHT22;66908;50.988;4.780;2023-02-18T00:55:40;11.90;92.40
55836;DHT22;66908;50.988;4.780;2023-02-18T00:58:06;11.90;92.50
55836;DHT22;66908;50.988;4.780;2023-02-18T01:00:33;12.00;92.30
55836;DHT22;66908;50.988;4.780;2023-02-18T01:02:59;12.10;92.00
55836;DHT22;66908;50.988;4.780;2023-02-18T01:05:25;12.20;91.60
55836;DHT22;66908;50.988;4.780;2023-02-18T01:07:51;12.10;91.80
55836;DHT22;66908;50.988;4.780;2023-02-18T01:10:17;12.10;91.90
55836;DHT22;66908;50.988;4.780;2023-02-18T01:12:43;12.00;92.40
55836;DHT22;66908;50.988;4.780;2023-02-18T01:15:10;11.90;92.60
55836;DHT22;66908;50.988;4.780;2023-02-18T01:17:36;11.80;92.70
55836;DHT22;66908;50.988;4.780;2023-02-18T01:20:02;11.80;92.80
55836;DHT22;66908;50.988;4.780;2023-02-18T01:22:28;11.80;92.90
55836;DHT22;66908;50.988;4.780;2023-02-18T01:24:54;11.80;92.90
55836;DHT22;66908;50.988;4.780;2023-02-18T01:27:20;11.80;92.80
55836;DHT22;66908;50.988;4.780;2023-02-18T01:29:46;11.80;92.70
55836;DHT22;66908;50.988;4.780;2023-02-18T01:32:11;11.90;92.50
55836;DHT22;66908;50.988;4.780;2023-02-18T01:34:37;11.80;92.40
55836;DHT22;66908;50.988;4.780;2023-02-18T01:37:03;11.80;92.60
55836;DHT22;66908;50.988;4.780;2023-02-18T01:39:29;11.90;92.50
55836;DHT22;66908;50.988;4.780;2023-02-18T01:41:55;11.90;92.50
55836;DHT22;66908;50.988;4.780;2023-02-18T01:44:23;11.70;93.30
55836;DHT22;66908;50.988;4.780;2023-02-18T01:46:51;11.70;93.20
55836;DHT22;66908;50.988;4.780;2023-02-18T01:49:24;11.70;92.90
55836;DHT22;66908;50.988;4.780;2023-02-18T01:51:58;11.70;93.10
55836;DHT22;66908;50.988;4.780;2023-02-18T01:54:56;11.80;93.00
55836;DHT22;66908;50.988;4.780;2023-02-18T01:57:30;11.70;93.00
55836;DHT22;66908;50.988;4.780;2023-02-18T02:00:08;11.90;92.70
55836;DHT22;66908;50.988;4.780;2023-02-18T02:02:39;11.90;92.80
55836;DHT22;66908;50.988;4.780;2023-02-18T02:05:07;11.80;93.10
55836;DHT22;66908;50.988;4.780;2023-02-18T02:07:33;11.70;93.10
55836;DHT22;66908;50.988;4.780;2023-02-18T02:09:59;11.80;93.20
55836;DHT22;66908;50.988;4.780;2023-02-18T02:17:44;11.80;93.20
55836;DHT22;66908;50.988;4.780;2023-02-18T02:31:57;12.00;92.90
55836;DHT22;66908;50.988;4.780;2023-02-18T02:37:21;11.90;92.80
55836;DHT22;66908;50.988;4.780;2023-02-18T02:40:14;11.80;93.10
55836;DHT22;66908;50.988;4.780;2023-02-18T02:43:01;11.50;93.90
55836;DHT22;66908;50.988;4.780;2023-02-18T02:51:10;11.50;94.10
55836;DHT22;66908;50.988;4.780;2023-02-18T02:53:40;11.50;93.80
55836;DHT22;66908;50.988;4.780;2023-02-18T02:56:16;11.50;94.10
55836;DHT22;66908;50.988;4.780;2023-02-18T02:58:44;11.60;94.00
55836;DHT22;66908;50.988;4.780;2023-02-18T03:01:26;11.60;93.70
55836;DHT22;66908;50.988;4.780;2023-02-18T03:15:42;11.50;93.90
55836;DHT22;66908;50.988;4.780;2023-02-18T03:21:20;11.60;93.90
55836;DHT22;66908;50.988;4.780;2023-02-18T03:24:29;11.50;94.10
55836;DHT22;66908;50.988;4.780;2023-02-18T03:26:58;11.60;94.00
55836;DHT22;66908;50.988;4.780;2023-02-18T03:29:26;11.70;93.50
55836;DHT22;66908;50.988;4.780;2023-02-18T03:31:56;11.60;93.80
55836;DHT22;66908;50.988;4.780;2023-02-18T03:34:34;11.60;94.20
55836;DHT22;66908;50.988;4.780;2023-02-18T03:37:01;11.60;93.80
55836;DHT22;66908;50.988;4.780;2023-02-18T03:39:29;11.60;93.80
55836;DHT22;66908;50.988;4.780;2023-02-18T03:41:57;11.70;93.40
55836;DHT22;66908;50.988;4.780;2023-02-18T03:44:23;11.60;93.50
55836;DHT22;66908;50.988;4.780;2023-02-18T03:46:50;11.60;93.60
55836;DHT22;66908;50.988;4.780;2023-02-18T03:49:16;11.70;93.50
55836;DHT22;66908;50.988;4.780;2023-02-18T03:51:42;11.60;93.40
55836;DHT22;66908;50.988;4.780;2023-02-18T03:54:09;11.70;93.50
55836;DHT22;66908;50.988;4.780;2023-02-18T03:56:35;11.70;93.20
55836;DHT22;66908;50.988;4.780;2023-02-18T03:59:02;11.70;93.30
55836;DHT22;66908;50.988;4.780;2023-02-18T04:01:28;11.60;93.30
55836;DHT22;66908;50.988;4.780;2023-02-18T04:03:54;11.50;93.70
55836;DHT22;66908;50.988;4.780;2023-02-18T04:06:22;11.40;94.00
55836;DHT22;66908;50.988;4.780;2023-02-18T04:08:48;11.50;93.80
55836;DHT22;66908;50.988;4.780;2023-02-18T04:11:14;11.60;93.60
55836;DHT22;66908;50.988;4.780;2023-02-18T04:13:40;11.30;94.10
55836;DHT22;66908;50.988;4.780;2023-02-18T04:16:06;11.40;94.10
55836;DHT22;66908;50.988;4.780;2023-02-18T04:18:32;11.40;94.00
55836;DHT22;66908;50.988;4.780;2023-02-18T04:20:58;11.40;94.10
55836;DHT22;66908;50.988;4.780;2023-02-18T04:23:24;11.40;94.10
55836;DHT22;66908;50.988;4.780;2023-02-18T04:25:50;11.30;93.90
55836;DHT22;66908;50.988;4.780;2023-02-18T04:28:16;11.30;94.10
55836;DHT22;66908;50.988;4.780;2023-02-18T04:30:46;11.40;94.00
55836;DHT22;66908;50.988;4.780;2023-02-18T04:33:12;11.30;94.00
55836;DHT22;66908;50.988;4.780;2023-02-18T04:35:38;11.30;94.00
55836;DHT22;66908;50.988;4.780;2023-02-18T04:38:08;11.40;93.90
55836;DHT22;66908;50.988;4.780;2023-02-18T04:40:35;11.30;94.10
55836;DHT22;66908;50.988;4.780;2023-02-18T04:43:01;11.30;94.30
55836;DHT22;66908;50.988;4.780;2023-02-18T04:45:28;11.20;94.40
55836;DHT22;66908;50.988;4.780;2023-02-18T04:47:54;11.20;94.40
55836;DHT22;66908;50.988;4.780;2023-02-18T04:50:21;11.30;94.10
55836;DHT22;66908;50.988;4.780;2023-02-18T04:52:47;11.40;93.90
55836;DHT22;66908;50.988;4.780;2023-02-18T04:55:13;11.30;93.80
55836;DHT22;66908;50.988;4.780;2023-02-18T04:57:39;11.30;94.30
55836;DHT22;66908;50.988;4.780;2023-02-18T05:00:07;11.20;94.40
55836;DHT22;66908;50.988;4.780;2023-02-18T05:02:33;11.30;94.10
55836;DHT22;66908;50.988;4.780;2023-02-18T05:04:59;11.20;94.50
55836;DHT22;66908;50.988;4.780;2023-02-18T05:07:25;11.10;94.80
55836;DHT22;66908;50.988;4.780;2023-02-18T05:09:51;11.00;94.90
55836;DHT22;66908;50.988;4.780;2023-02-18T05:12:18;11.10;95.10
55836;DHT22;66908;50.988;4.780;2023-02-18T05:14:44;11.10;95.00
55836;DHT22;66908;50.988;4.780;2023-02-18T05:17:10;11.10;94.50
55836;DHT22;66908;50.988;4.780;2023-02-18T05:19:36;11.00;95.10
55836;DHT22;66908;50.988;4.780;2023-02-18T05:22:02;11.00;95.00
55836;DHT22;66908;50.988;4.780;2023-02-18T05:24:28;11.00;94.90
55836;DHT22;66908;50.988;4.780;2023-02-18T05:26:54;11.10;94.70
55836;DHT22;66908;50.988;4.780;2023-02-18T05:29:19;11.20;94.40
55836;DHT22;66908;50.988;4.780;2023-02-18T05:31:45;11.20;94.10
55836;DHT22;66908;50.988;4.780;2023-02-18T05:34:11;11.20;94.40
55836;DHT22;66908;50.988;4.780;2023-02-18T05:36:37;11.20;94.20
55836;DHT22;66908;50.988;4.780;2023-02-18T05:39:03;11.20;94.10
55836;DHT22;66908;50.988;4.780;2023-02-18T05:41:29;11.20;94.30
55836;DHT22;66908;50.988;4.780;2023-02-18T05:43:55;11.10;94.20
55836;DHT22;66908;50.988;4.780;2023-02-18T05:46:39;11.10;94.40
55836;DHT22;66908;50.988;4.780;2023-02-18T05:49:05;11.00;94.70
55836;DHT22;66908;50.988;4.780;2023-02-18T05:51:31;11.10;94.10
55836;DHT22;66908;50.988;4.780;2023-02-18T05:53:57;11.00;94.20
55836;DHT22;66908;50.988;4.780;2023-02-18T05:56:23;11.00;94.10
55836;DHT22;66908;50.988;4.780;2023-02-18T05:58:49;10.80;94.70
55836;DHT22;66908;50.988;4.780;2023-02-18T06:01:15;10.70;94.50
55836;DHT22;66908;50.988;4.780;2023-02-18T06:03:40;10.90;94.60
55836;DHT22;66908;50.988;4.780;2023-02-18T06:06:07;10.90;94.40
55836;DHT22;66908;50.988;4.780;2023-02-18T06:08:33;10.90;94.00
55836;DHT22;66908;50.988;4.780;2023-02-18T06:11:00;10.80;94.00
55836;DHT22;66908;50.988;4.780;2023-02-18T06:13:25;10.80;94.00
55836;DHT22;66908;50.988;4.780;2023-02-18T06:15:51;10.80;93.50
55836;DHT22;66908;50.988;4.780;2023-02-18T06:18:18;10.80;93.10
55836;DHT22;66908;50.988;4.780;2023-02-18T06:20:46;10.90;92.90
55836;DHT22;66908;50.988;4.780;2023-02-18T06:23:12;10.80;92.90
55836;DHT22;66908;50.988;4.780;2023-02-18T06:25:37;10.80;92.30
55836;DHT22;66908;50.988;4.780;2023-02-18T06:28:04;10.70;92.80
55836;DHT22;66908;50.988;4.780;2023-02-18T06:30:30;10.80;91.80
55836;DHT22;66908;50.988;4.780;2023-02-18T06:32:56;10.70;92.10
55836;DHT22;66908;50.988;4.780;2023-02-18T06:35:22;10.70;92.00
55836;DHT22;66908;50.988;4.780;2023-02-18T06:37:48;10.70;91.70
55836;DHT22;66908;50.988;4.780;2023-02-18T06:40:14;10.80;91.90
55836;DHT22;66908;50.988;4.780;2023-02-18T06:42:40;10.70;91.60
55836;DHT22;66908;50.988;4.780;2023-02-18T06:45:06;10.70;91.10
55836;DHT22;66908;50.988;4.780;2023-02-18T06:47:33;10.60;91.40
55836;DHT22;66908;50.988;4.780;2023-02-18T06:49:59;10.70;91.30
55836;DHT22;66908;50.988;4.780;2023-02-18T06:52:25;10.70;90.40
55836;DHT22;66908;50.988;4.780;2023-02-18T06:54:51;10.70;90.40
55836;DHT22;66908;50.988;4.780;2023-02-18T06:57:16;10.70;89.90
55836;DHT22;66908;50.988;4.780;2023-02-18T06:59:42;10.70;90.60
55836;DHT22;66908;50.988;4.780;2023-02-18T07:02:13;10.80;89.60
55836;DHT22;66908;50.988;4.780;2023-02-18T07:04:39;10.70;89.00
55836;DHT22;66908;50.988;4.780;2023-02-18T07:07:05;10.70;88.80
55836;DHT22;66908;50.988;4.780;2023-02-18T07:09:31;10.80;89.70
55836;DHT22;66908;50.988;4.780;2023-02-18T07:11:56;10.80;89.20
55836;DHT22;66908;50.988;4.780;2023-02-18T07:14:23;10.70;90.00
55836;DHT22;66908;50.988;4.780;2023-02-18T07:16:49;10.70;90.10
55836;DHT22;66908;50.988;4.780;2023-02-18T07:19:16;10.70;89.50
55836;DHT22;66908;50.988;4.780;2023-02-18T07:21:42;10.70;90.00
55836;DHT22;66908;50.988;4.780;2023-02-18T07:24:08;10.60;88.10
55836;DHT22;66908;50.988;4.780;2023-02-18T07:26:34;10.70;88.00
55836;DHT22;66908;50.988;4.780;2023-02-18T07:29:00;10.70;88.40
55836;DHT22;66908;50.988;4.780;2023-02-18T07:31:25;10.80;88.10
55836;DHT22;66908;50.988;4.780;2023-02-18T07:33:51;10.80;88.30
55836;DHT22;66908;50.988;4.780;2023-02-18T07:36:17;10.90;87.90
55836;DHT22;66908;50.988;4.780;2023-02-18T07:38:42;10.90;88.00
55836;DHT22;66908;50.988;4.780;2023-02-18T07:41:17;10.90;87.40
55836;DHT22;66908;50.988;4.780;2023-02-18T07:43:43;11.00;87.60
55836;DHT22;66908;50.988;4.780;2023-02-18T07:46:09;11.10;86.30
55836;DHT22;66908;50.988;4.780;2023-02-18T07:48:35;11.00;86.80
55836;DHT22;66908;50.988;4.780;2023-02-18T07:51:05;11.00;87.20
55836;DHT22;66908;50.988;4.780;2023-02-18T07:53:30;11.10;86.70
55836;DHT22;66908;50.988;4.780;2023-02-18T07:55:59;11.20;86.30
55836;DHT22;66908;50.988;4.780;2023-02-18T07:58:28;11.10;85.90
55836;DHT22;66908;50.988;4.780;2023-02-18T08:00:54;11.00;86.30
55836;DHT22;66908;50.988;4.780;2023-02-18T08:03:22;11.10;86.30
55836;DHT22;66908;50.988;4.780;2023-02-18T08:05:48;11.10;86.10
55836;DHT22;66908;50.988;4.780;2023-02-18T08:08:16;11.20;85.20
55836;DHT22;66908;50.988;4.780;2023-02-18T08:10:45;11.20;86.50
55836;DHT22;66908;50.988;4.780;2023-02-18T08:13:11;11.30;86.00
55836;DHT22;66908;50.988;4.780;2023-02-18T08:15:38;11.40;85.50
55836;DHT22;66908;50.988;4.780;2023-02-18T08:18:05;11.20;86.10
55836;DHT22;66908;50.988;4.780;2023-02-18T08:20:31;11.20;85.20
55836;DHT22;66908;50.988;4.780;2023-02-18T08:22:56;11.10;86.70
55836;DHT22;66908;50.988;4.780;2023-02-18T08:25:22;11.00;87.20
55836;DHT22;66908;50.988;4.780;2023-02-18T08:27:48;11.10;86.50
55836;DHT22;66908;50.988;4.780;2023-02-18T08:30:14;11.10;86.40
55836;DHT22;66908;50.988;4.780;2023-02-18T08:32:39;11.20;86.70
55836;DHT22;66908;50.988;4.780;2023-02-18T08:35:06;11.20;86.40
55836;DHT22;66908;50.988;4.780;2023-02-18T08:37:32;11.30;85.50
55836;DHT22;66908;50.988;4.780;2023-02-18T08:39:57;11.30;85.60
55836;DHT22;66908;50.988;4.780;2023-02-18T08:42:23;11.30;85.00
55836;DHT22;66908;50.988;4.780;2023-02-18T08:44:49;11.40;84.60
55836;DHT22;66908;50.988;4.780;2023-02-18T08:47:15;11.50;84.20
55836;DHT22;66908;50.988;4.780;2023-02-18T08:49:40;11.50;83.90
55836;DHT22;66908;50.988;4.780;2023-02-18T08:52:06;11.50;83.60
55836;DHT22;66908;50.988;4.780;2023-02-18T08:54:32;11.50;83.50
55836;DHT22;66908;50.988;4.780;2023-02-18T08:56:57;11.50;83.40
55836;DHT22;66908;50.988;4.780;2023-02-18T08:59:24;11.50;83.20
55836;DHT22;66908;50.988;4.780;2023-02-18T09:01:50;11.50;83.00
55836;DHT22;66908;50.988;4.780;2023-02-18T09:04:16;11.50;83.80
55836;DHT22;66908;50.988;4.780;2023-02-18T09:06:41;11.70;82.10
55836;DHT22;66908;50.988;4.780;2023-02-18T09:09:07;11.70;82.30
55836;DHT22;66908;50.988;4.780;2023-02-18T09:11:34;11.70;82.50
55836;DHT22;66908;50.988;4.780;2023-02-18T09:14:00;11.70;82.10
55836;DHT22;66908;50.988;4.780;2023-02-18T09:16:27;11.70;81.80
55836;DHT22;66908;50.988;4.780;2023-02-18T09:18:54;11.70;83.30
55836;DHT22;66908;50.988;4.780;2023-02-18T09:21:20;11.80;82.40
55836;DHT22;66908;50.988;4.780;2023-02-18T09:23:48;11.80;81.90
55836;DHT22;66908;50.988;4.780;2023-02-18T09:26:16;11.70;82.00
55836;DHT22;66908;50.988;4.780;2023-02-18T09:28:42;11.70;82.50
55836;DHT22;66908;50.988;4.780;2023-02-18T09:31:11;11.70;82.40
55836;DHT22;66908;50.988;4.780;2023-02-18T09:33:39;11.70;82.00
55836;DHT22;66908;50.988;4.780;2023-02-18T09:36:06;11.60;82.80
55836;DHT22;66908;50.988;4.780;2023-02-18T09:38:31;11.60;83.50
55836;DHT22;66908;50.988;4.780;2023-02-18T09:40:58;11.70;82.40
55836;DHT22;66908;50.988;4.780;2023-02-18T09:43:45;11.60;83.40
55836;DHT22;66908;50.988;4.780;2023-02-18T09:46:22;11.70;82.70
55836;DHT22;66908;50.988;4.780;2023-02-18T09:48:50;11.60;83.70
55836;DHT22;66908;50.988;4.780;2023-02-18T09:51:17;11.70;84.10
55836;DHT22;66908;50.988;4.780;2023-02-18T09:53:44;11.80;83.30
55836;DHT22;66908;50.988;4.780;2023-02-18T09:56:18;11.70;83.00
55836;DHT22;66908;50.988;4.780;2023-02-18T09:58:46;11.70;82.90
55836;DHT22;66908;50.988;4.780;2023-02-18T10:01:34;11.60;84.70
55836;DHT22;66908;50.988;4.780;2023-02-18T10:04:29;11.60;84.50
55836;DHT22;66908;50.988;4.780;2023-02-18T10:06:57;11.70;84.10
55836;DHT22;66908;50.988;4.780;2023-02-18T10:09:28;11.90;83.60
55836;DHT22;66908;50.988;4.780;2023-02-18T10:11:59;12.00;83.40
55836;DHT22;66908;50.988;4.780;2023-02-18T10:14:27;12.00;83.40
55836;DHT22;66908;50.988;4.780;2023-02-18T10:16:55;11.90;82.90
55836;DHT22;66908;50.988;4.780;2023-02-18T10:19:29;11.80;83.30
55836;DHT22;66908;50.988;4.780;2023-02-18T10:21:56;11.80;84.40
55836;DHT22;66908;50.988;4.780;2023-02-18T10:24:30;11.80;85.00
55836;DHT22;66908;50.988;4.780;2023-02-18T10:26:57;11.80;84.00
55836;DHT22;66908;50.988;4.780;2023-02-18T10:29:24;11.80;84.90
55836;DHT22;66908;50.988;4.780;2023-02-18T10:32:22;11.90;85.10
55836;DHT22;66908;50.988;4.780;2023-02-18T10:50:25;12.00;85.20
55836;DHT22;66908;50.988;4.780;2023-02-18T10:52:55;12.00;85.60
55836;DHT22;66908;50.988;4.780;2023-02-18T10:55:35;11.90;86.70
55836;DHT22;66908;50.988;4.780;2023-02-18T10:58:02;12.00;85.60
55836;DHT22;66908;50.988;4.780;2023-02-18T11:00:34;12.00;86.00
55836;DHT22;66908;50.988;4.780;2023-02-18T11:03:17;12.00;86.20
55836;DHT22;66908;50.988;4.780;2023-02-18T11:05:46;12.00;85.80
55836;DHT22;66908;50.988;4.780;2023-02-18T11:08:37;12.00;86.40
55836;DHT22;66908;50.988;4.780;2023-02-18T11:11:37;12.10;85.50
55836;DHT22;66908;50.988;4.780;2023-02-18T11:14:07;12.10;85.90
55836;DHT22;66908;50.988;4.780;2023-02-18T11:16:44;12.20;85.30
55836;DHT22;66908;50.988;4.780;2023-02-18T11:19:33;12.30;85.10
55836;DHT22;66908;50.988;4.780;2023-02-18T11:22:15;12.20;85.90
55836;DHT22;66908;50.988;4.780;2023-02-18T11:24:44;12.10;86.40
55836;DHT22;66908;50.988;4.780;2023-02-18T11:27:48;12.10;86.40
55836;DHT22;66908;50.988;4.780;2023-02-18T11:32:42;12.20;86.10
55836;DHT22;66908;50.988;4.780;2023-02-18T11:35:20;12.20;86.90
55836;DHT22;66908;50.988;4.780;2023-02-18T11:37:47;12.20;85.60
55836;DHT22;66908;50.988;4.780;2023-02-18T11:40:51;12.30;85.70
55836;DHT22;66908;50.988;4.780;2023-02-18T11:43:18;12.20;86.20
55836;DHT22;66908;50.988;4.780;2023-02-18T11:45:46;12.30;85.00
55836;DHT22;66908;50.988;4.780;2023-02-18T11:48:16;12.30;85.50
55836;DHT22;66908;50.988;4.780;2023-02-18T11:50:45;12.20;85.90
55836;DHT22;66908;50.988;4.780;2023-02-18T11:53:28;12.30;85.50
55836;DHT22;66908;50.988;4.780;2023-02-18T11:55:56;12.20;85.90
55836;DHT22;66908;50.988;4.780;2023-02-18T11:58:23;12.30;85.80
55836;DHT22;66908;50.988;4.780;2023-02-18T12:00:55;12.30;85.20
55836;DHT22;66908;50.988;4.780;2023-02-18T12:03:41;12.20;85.70
55836;DHT22;66908;50.988;4.780;2023-02-18T12:06:27;12.30;86.10
55836;DHT22;66908;50.988;4.780;2023-02-18T12:08:58;12.30;85.60
55836;DHT22;66908;50.988;4.780;2023-02-18T12:11:36;12.30;86.00
55836;DHT22;66908;50.988;4.780;2023-02-18T12:14:11;12.30;85.80
55836;DHT22;66908;50.988;4.780;2023-02-18T12:17:05;12.40;85.50
55836;DHT22;66908;50.988;4.780;2023-02-18T12:19:51;12.40;85.50
55836;DHT22;66908;50.988;4.780;2023-02-18T12:22:39;12.30;85.30
55836;DHT22;66908;50.988;4.780;2023-02-18T12:25:27;12.40;85.30
55836;DHT22;66908;50.988;4.780;2023-02-18T12:36:45;12.60;84.90
55836;DHT22;66908;50.988;4.780;2023-02-18T12:42:15;12.50;84.30
55836;DHT22;66908;50.988;4.780;2023-02-18T12:56:54;12.60;84.90
55836;DHT22;66908;50.988;4.780;2023-02-18T12:59:42;12.50;84.60
55836;DHT22;66908;50.988;4.780;2023-02-18T13:05:17;12.40;85.80
55836;DHT22;66908;50.988;4.780;2023-02-18T13:10:55;12.20;88.90
55836;DHT22;66908;50.988;4.780;2023-02-18T13:13:30;12.20;89.60
55836;DHT22;66908;50.988;4.780;2023-02-18T13:16:02;12.10;90.60
55836;DHT22;66908;50.988;4.780;2023-02-18T13:18:33;12.00;90.50
55836;DHT22;66908;50.988;4.780;2023-02-18T13:21:05;11.90;91.00
55836;DHT22;66908;50.988;4.780;2023-02-18T13:23:51;11.80;91.60
55836;DHT22;66908;50.988;4.780;2023-02-18T13:26:18;11.80;91.70
55836;DHT22;66908;50.988;4.780;2023-02-18T13:28:57;11.80;91.80
55836;DHT22;66908;50.988;4.780;2023-02-18T13:34:11;11.80;91.90
55836;DHT22;66908;50.988;4.780;2023-02-18T13:39:20;11.80;92.30
55836;DHT22;66908;50.988;4.780;2023-02-18T13:41:48;11.90;92.00
55836;DHT22;66908;50.988;4.780;2023-02-18T13:46:51;11.90;92.00
55836;DHT22;66908;50.988;4.780;2023-02-18T13:49:21;11.90;92.10
55836;DHT22;66908;50.988;4.780;2023-02-18T13:51:50;11.70;92.40
55836;DHT22;66908;50.988;4.780;2023-02-18T13:57:17;11.70;92.50
55836;DHT22;66908;50.988;4.780;2023-02-18T14:00:03;11.60;92.80
55836;DHT22;66908;50.988;4.780;2023-02-18T14:02:32;11.60;92.90
55836;DHT22;66908;50.988;4.780;2023-02-18T14:18:06;11.80;92.20
55836;DHT22;66908;50.988;4.780;2023-02-18T14:23:11;12.10;91.20
55836;DHT22;66908;50.988;4.780;2023-02-18T14:25:41;12.00;91.70
55836;DHT22;66908;50.988;4.780;2023-02-18T14:28:52;11.90;91.60
55836;DHT22;66908;50.988;4.780;2023-02-18T14:31:38;11.90;91.90
55836;DHT22;66908;50.988;4.780;2023-02-18T14:49:14;11.90;91.60
55836;DHT22;66908;50.988;4.780;2023-02-18T14:51:44;11.90;91.80
55836;DHT22;66908;50.988;4.780;2023-02-18T14:54:17;11.90;91.70
55836;DHT22;66908;50.988;4.780;2023-02-18T14:59:20;12.00;91.30
55836;DHT22;66908;50.988;4.780;2023-02-18T15:01:46;12.00;91.20
55836;DHT22;66908;50.988;4.780;2023-02-18T15:04:14;12.00;91.40
55836;DHT22;66908;50.988;4.780;2023-02-18T15:06:41;12.10;91.20
55836;DHT22;66908;50.988;4.780;2023-02-18T15:09:20;11.90;91.20
55836;DHT22;66908;50.988;4.780;2023-02-18T15:11:59;11.80;91.50
55836;DHT22;66908;50.988;4.780;2023-02-18T15:14:29;12.00;91.30
55836;DHT22;66908;50.988;4.780;2023-02-18T15:16:56;12.00;91.00
55836;DHT22;66908;50.988;4.780;2023-02-18T15:19:30;12.00;90.90
55836;DHT22;66908;50.988;4.780;2023-02-18T15:21:58;12.00;90.80
55836;DHT22;66908;50.988;4.780;2023-02-18T15:24:25;12.00;91.30
55836;DHT22;66908;50.988;4.780;2023-02-18T15:26:54;12.20;90.80
55836;DHT22;66908;50.988;4.780;2023-02-18T15:29:30;12.30;90.70
55836;DHT22;66908;50.988;4.780;2023-02-18T15:31:56;12.10;90.80
55836;DHT22;66908;50.988;4.780;2023-02-18T15:36:55;12.10;90.50
55836;DHT22;66908;50.988;4.780;2023-02-18T15:39:21;11.80;91.40
55836;DHT22;66908;50.988;4.780;2023-02-18T15:41:52;11.90;91.00
55836;DHT22;66908;50.988;4.780;2023-02-18T15:44:24;12.10;90.90
55836;DHT22;66908;50.988;4.780;2023-02-18T15:46:51;12.10;90.60
55836;DHT22;66908;50.988;4.780;2023-02-18T15:49:21;12.10;90.50
55836;DHT22;66908;50.988;4.780;2023-02-18T15:51:47;11.90;90.90
55836;DHT22;66908;50.988;4.780;2023-02-18T15:54:16;11.80;91.30
55836;DHT22;66908;50.988;4.780;2023-02-18T15:56:45;11.80;91.10
55836;DHT22;66908;50.988;4.780;2023-02-18T15:59:26;11.80;91.20
55836;DHT22;66908;50.988;4.780;2023-02-18T16:02:17;11.90;91.00
55836;DHT22;66908;50.988;4.780;2023-02-18T16:04:54;12.00;90.50
55836;DHT22;66908;50.988;4.780;2023-02-18T16:09:49;12.00;90.70
55836;DHT22;66908;50.988;4.780;2023-02-18T16:12:28;12.00;90.60
55836;DHT22;66908;50.988;4.780;2023-02-18T16:14:56;11.90;90.80
55836;DHT22;66908;50.988;4.780;2023-02-18T16:17:25;11.90;90.90
55836;DHT22;66908;50.988;4.780;2023-02-18T16:20:15;12.00;90.50
55836;DHT22;66908;50.988;4.780;2023-02-18T16:22:48;12.10;90.10
55836;DHT22;66908;50.988;4.780;2023-02-18T16:25:23;12.00;90.30
55836;DHT22;66908;50.988;4.780;2023-02-18T16:28:02;12.00;90.30
55836;DHT22;66908;50.988;4.780;2023-02-18T16:30:31;12.00;90.60
55836;DHT22;66908;50.988;4.780;2023-02-18T16:32:58;12.00;90.30
55836;DHT22;66908;50.988;4.780;2023-02-18T16:35:27;12.20;89.90
55836;DHT22;66908;50.988;4.780;2023-02-18T16:37:54;12.30;89.40
55836;DHT22;66908;50.988;4.780;2023-02-18T16:42:51;12.40;88.70
55836;DHT22;66908;50.988;4.780;2023-02-18T16:45:18;12.30;88.80
55836;DHT22;66908;50.988;4.780;2023-02-18T16:47:46;12.20;89.90
55836;DHT22;66908;50.988;4.780;2023-02-18T16:50:20;12.10;90.00
55836;DHT22;66908;50.988;4.780;2023-02-18T16:52:46;12.10;90.00
55836;DHT22;66908;50.988;4.780;2023-02-18T16:55:24;12.00;90.30
55836;DHT22;66908;50.988;4.780;2023-02-18T16:57:50;11.90;90.60
55836;DHT22;66908;50.988;4.780;2023-02-18T17:00:17;12.00;90.20
55836;DHT22;66908;50.988;4.780;2023-02-18T17:02:48;12.00;90.30
55836;DHT22;66908;50.988;4.780;2023-02-18T17:05:27;12.00;90.30
55836;DHT22;66908;50.988;4.780;2023-02-18T17:07:57;12.10;90.00
55836;DHT22;66908;50.988;4.780;2023-02-18T17:10:24;11.90;90.40
55836;DHT22;66908;50.988;4.780;2023-02-18T17:12:50;11.90;90.50
55836;DHT22;66908;50.988;4.780;2023-02-18T17:15:31;12.00;90.30
55836;DHT22;66908;50.988;4.780;2023-02-18T17:17:58;11.90;90.40
55836;DHT22;66908;50.988;4.780;2023-02-18T17:20:26;11.90;90.40
55836;DHT22;66908;50.988;4.780;2023-02-18T17:22:52;11.80;90.70
55836;DHT22;66908;50.988;4.780;2023-02-18T17:25:24;11.90;90.60
55836;DHT22;66908;50.988;4.780;2023-02-18T17:27:53;11.90;90.60
55836;DHT22;66908;50.988;4.780;2023-02-18T17:30:19;12.10;90.20
55836;DHT22;66908;50.988;4.780;2023-02-18T17:32:45;12.20;89.90
55836;DHT22;66908;50.988;4.780;2023-02-18T17:35:16;12.10;90.10
55836;DHT22;66908;50.988;4.780;2023-02-18T17:37:43;12.00;90.20
55836;DHT22;66908;50.988;4.780;2023-02-18T17:40:19;12.00;90.10
55836;DHT22;66908;50.988;4.780;2023-02-18T17:42:46;12.00;90.40
55836;DHT22;66908;50.988;4.780;2023-02-18T17:45:32;12.10;90.30
55836;DHT22;66908;50.988;4.780;2023-02-18T17:48:00;12.10;90.10
55836;DHT22;66908;50.988;4.780;2023-02-18T17:50:27;11.90;90.50
55836;DHT22;66908;50.988;4.780;2023-02-18T17:52:53;11.90;90.60
55836;DHT22;66908;50.988;4.780;2023-02-18T17:55:31;11.90;90.50
55836;DHT22;66908;50.988;4.780;2023-02-18T17:57:58;12.00;90.20
55836;DHT22;66908;50.988;4.780;2023-02-18T18:02:51;11.80;90.60
55836;DHT22;66908;50.988;4.780;2023-02-18T18:07:49;11.90;91.00
55836;DHT22;66908;50.988;4.780;2023-02-18T18:10:17;11.90;90.70
55836;DHT22;66908;50.988;4.780;2023-02-18T18:12:43;12.00;90.60